sensor_id;sensor_type;location;lat;lon;timestamp;temperature;humidity
64743;HTU21D;51177;45.018;38.982;2022-09-30T00:01:32;18.82;61.73
64743;HTU21D;51177;45.018;38.982;2022-09-30T00:03:58;18.63;61.76
64743;HTU21D;51177;45.018;38.982;2022-09-30T00:06:24;18.47;61.79
64743;HTU21D;51177;45.018;38.982;2022-09-30T00:08:51;18.33;61.83
64743;HTU21D;51177;45.018;38.982;2022-09-30T00:11:27;18.21;61.83
64743;HTU21D;51177;45.018;38.982;2022-09-30T00:13:54;18.09;61.83
64743;HTU21D;51177;45.018;38.982;2022-09-30T00:16:20;17.99;61.83
64743;HTU21D;51177;45.018;38.982;2022-09-30T00:19:12;17.89;61.85
64743;HTU21D;51177;45.018;38.982;2022-09-30T00:21:38;17.80;61.86
64743;HTU21D;51177;45.018;38.982;2022-09-30T00:24:04;17.73;61.86
64743;HTU21D;51177;45.018;38.982;2022-09-30T00:26:30;17.66;61.84
64743;HTU21D;51177;45.018;38.982;2022-09-30T00:28:57;17.60;61.83
64743;HTU21D;51177;45.018;38.982;2022-09-30T00:31:24;17.54;61.90
64743;HTU21D;51177;45.018;38.982;2022-09-30T00:33:51;17.49;61.87
64743;HTU21D;51177;45.018;38.982;2022-09-30T00:36:40;17.45;61.86
64743;HTU21D;51177;45.018;38.982;2022-09-30T00:39:08;17.39;61.86
64743;HTU21D;51177;45.018;38.982;2022-09-30T00:41:34;17.35;61.88
64743;HTU21D;51177;45.018;38.982;2022-09-30T00:46:51;17.25;61.91
64743;HTU21D;51177;45.018;38.982;2022-09-30T00:49:20;17.20;61.96
64743;HTU21D;51177;45.018;38.982;2022-09-30T00:51:49;17.17;61.98
64743;HTU21D;51177;45.018;38.982;2022-09-30T00:54:17;17.15;62.22
64743;HTU21D;51177;45.018;38.982;2022-09-30T00:56:48;17.14;62.41
64743;HTU21D;51177;45.018;38.982;2022-09-30T00:59:16;17.15;62.34
64743;HTU21D;51177;45.018;38.982;2022-09-30T01:01:47;17.09;62.66
64743;HTU21D;51177;45.018;38.982;2022-09-30T01:04:25;17.04;62.66
64743;HTU21D;51177;45.018;38.982;2022-09-30T01:06:53;16.98;62.66
64743;HTU21D;51177;45.018;38.982;2022-09-30T01:09:18;16.94;62.61
64743;HTU21D;51177;45.018;38.982;2022-09-30T01:11:45;16.91;62.64
64743;HTU21D;51177;45.018;38.982;2022-09-30T01:14:15;16.87;62.63
64743;HTU21D;51177;45.018;38.982;2022-09-30T01:22:13;16.77;62.57
64743;HTU21D;51177;45.018;38.982;2022-09-30T01:30:11;16.64;63.02
64743;HTU21D;51177;45.018;38.982;2022-09-30T01:40:29;16.46;63.34
64743;HTU21D;51177;45.018;38.982;2022-09-30T01:43:02;16.48;63.17
64743;HTU21D;51177;45.018;38.982;2022-09-30T01:55:53;16.34;63.76
64743;HTU21D;51177;45.018;38.982;2022-09-30T01:58:23;16.29;63.84
64743;HTU21D;51177;45.018;38.982;2022-09-30T02:00:57;16.26;63.72
64743;HTU21D;51177;45.018;38.982;2022-09-30T02:03:36;16.24;63.66
64743;HTU21D;51177;45.018;38.982;2022-09-30T02:06:07;16.21;63.63
64743;HTU21D;51177;45.018;38.982;2022-09-30T02:08:43;16.20;63.58
64743;HTU21D;51177;45.018;38.982;2022-09-30T02:11:16;16.19;63.53
64743;HTU21D;51177;45.018;38.982;2022-09-30T02:16:13;16.17;63.53
64743;HTU21D;51177;45.018;38.982;2022-09-30T02:18:44;16.14;63.66
64743;HTU21D;51177;45.018;38.982;2022-09-30T02:21:11;16.12;63.75
64743;HTU21D;51177;45.018;38.982;2022-09-30T02:23:40;16.11;63.77
64743;HTU21D;51177;45.018;38.982;2022-09-30T02:28:41;16.10;63.71
64743;HTU21D;51177;45.018;38.982;2022-09-30T02:31:08;16.08;63.66
64743;HTU21D;51177;45.018;38.982;2022-09-30T02:34:24;16.10;63.61
64743;HTU21D;51177;45.018;38.982;2022-09-30T02:39:52;16.07;63.61
64743;HTU21D;51177;45.018;38.982;2022-09-30T02:42:11;16.05;63.60
64743;HTU21D;51177;45.018;38.982;2022-09-30T02:47:44;16.02;63.57
64743;HTU21D;51177;45.018;38.982;2022-09-30T02:50:19;16.00;63.60
64743;HTU21D;51177;45.018;38.982;2022-09-30T02:55:33;15.97;63.64
64743;HTU21D;51177;45.018;38.982;2022-09-30T03:00:37;15.93;63.72
64743;HTU21D;51177;45.018;38.982;2022-09-30T03:03:08;16.06;63.68
64743;HTU21D;51177;45.018;38.982;2022-09-30T03:05:34;16.13;63.56
64743;HTU21D;51177;45.018;38.982;2022-09-30T03:08:00;16.19;63.55
64743;HTU21D;51177;45.018;38.982;2022-09-30T03:10:27;16.16;63.60
64743;HTU21D;51177;45.018;38.982;2022-09-30T03:18:32;16.19;63.95
64743;HTU21D;51177;45.018;38.982;2022-09-30T03:26:29;16.17;63.86
64743;HTU21D;51177;45.018;38.982;2022-09-30T03:29:05;16.13;63.88
64743;HTU21D;51177;45.018;38.982;2022-09-30T03:34:16;16.11;63.86
64743;HTU21D;51177;45.018;38.982;2022-09-30T03:41:46;16.10;63.83
64743;HTU21D;51177;45.018;38.982;2022-09-30T03:44:16;16.12;63.83
64743;HTU21D;51177;45.018;38.982;2022-09-30T03:49:18;16.16;63.79
64743;HTU21D;51177;45.018;38.982;2022-09-30T03:51:47;16.20;63.76
64743;HTU21D;51177;45.018;38.982;2022-09-30T03:54:13;16.26;63.74
64743;HTU21D;51177;45.018;38.982;2022-09-30T03:56:40;16.30;63.77
64743;HTU21D;51177;45.018;38.982;2022-09-30T03:59:09;16.89;63.66
64743;HTU21D;51177;45.018;38.982;2022-09-30T04:01:37;17.62;62.97
64743;HTU21D;51177;45.018;38.982;2022-09-30T04:04:04;18.25;62.61
64743;HTU21D;51177;45.018;38.982;2022-09-30T04:06:31;18.72;62.75
64743;HTU21D;51177;45.018;38.982;2022-09-30T04:08:56;19.22;62.36
64743;HTU21D;51177;45.018;38.982;2022-09-30T04:11:23;19.50;62.24
64743;HTU21D;51177;45.018;38.982;2022-09-30T04:13:48;19.73;62.26
64743;HTU21D;51177;45.018;38.982;2022-09-30T04:16:19;19.97;62.52
64743;HTU21D;51177;45.018;38.982;2022-09-30T04:18:44;20.28;62.41
64743;HTU21D;51177;45.018;38.982;2022-09-30T04:21:11;20.51;62.51
64743;HTU21D;51177;45.018;38.982;2022-09-30T04:23:38;20.80;62.28
64743;HTU21D;51177;45.018;38.982;2022-09-30T04:26:05;20.96;61.89
64743;HTU21D;51177;45.018;38.982;2022-09-30T04:28:31;21.11;61.74
64743;HTU21D;51177;45.018;38.982;2022-09-30T04:30:58;21.17;62.17
64743;HTU21D;51177;45.018;38.982;2022-09-30T04:33:24;21.33;61.75
64743;HTU21D;51177;45.018;38.982;2022-09-30T04:35:56;21.40;61.75
64743;HTU21D;51177;45.018;38.982;2022-09-30T04:38:22;21.34;61.84
64743;HTU21D;51177;45.018;38.982;2022-09-30T04:40:49;21.24;62.00
64743;HTU21D;51177;45.018;38.982;2022-09-30T04:43:19;21.08;61.98
64743;HTU21D;51177;45.018;38.982;2022-09-30T04:45:47;20.90;62.12
64743;HTU21D;51177;45.018;38.982;2022-09-30T04:48:15;20.74;62.41
64743;HTU21D;51177;45.018;38.982;2022-09-30T04:50:41;20.77;62.35
64743;HTU21D;51177;45.018;38.982;2022-09-30T04:53:11;20.89;62.18
64743;HTU21D;51177;45.018;38.982;2022-09-30T04:55:40;21.21;62.40
64743;HTU21D;51177;45.018;38.982;2022-09-30T04:58:07;21.91;62.12
64743;HTU21D;51177;45.018;38.982;2022-09-30T05:00:33;22.61;60.84
64743;HTU21D;51177;45.018;38.982;2022-09-30T05:03:00;23.06;60.01
64743;HTU21D;51177;45.018;38.982;2022-09-30T05:05:28;23.37;59.67
64743;HTU21D;51177;45.018;38.982;2022-09-30T05:08:01;23.88;59.25
64743;HTU21D;51177;45.018;38.982;2022-09-30T05:10:55;24.65;58.38
64743;HTU21D;51177;45.018;38.982;2022-09-30T05:13:25;25.35;57.58
64743;HTU21D;51177;45.018;38.982;2022-09-30T05:15:54;26.02;56.70
64743;HTU21D;51177;45.018;38.982;2022-09-30T05:18:20;26.65;55.90
64743;HTU21D;51177;45.018;38.982;2022-09-30T05:20:49;27.30;54.74
64743;HTU21D;51177;45.018;38.982;2022-09-30T05:23:16;27.95;53.73
64743;HTU21D;51177;45.018;38.982;2022-09-30T05:25:42;28.44;52.78
64743;HTU21D;51177;45.018;38.982;2022-09-30T05:31:01;29.44;51.47
64743;HTU21D;51177;45.018;38.982;2022-09-30T05:33:28;29.85;50.88
64743;HTU21D;51177;45.018;38.982;2022-09-30T05:35:58;30.25;49.98
64743;HTU21D;51177;45.018;38.982;2022-09-30T05:38:27;30.66;49.43
64743;HTU21D;51177;45.018;38.982;2022-09-30T05:40:57;31.00;48.71
64743;HTU21D;51177;45.018;38.982;2022-09-30T05:44:03;31.43;47.89
64743;HTU21D;51177;45.018;38.982;2022-09-30T05:46:30;31.71;46.03
64743;HTU21D;51177;45.018;38.982;2022-09-30T05:48:56;31.78;45.90
64743;HTU21D;51177;45.018;38.982;2022-09-30T05:51:24;32.02;45.95
64743;HTU21D;51177;45.018;38.982;2022-09-30T05:53:50;32.32;45.61
64743;HTU21D;51177;45.018;38.982;2022-09-30T05:56:16;32.58;45.13
64743;HTU21D;51177;45.018;38.982;2022-09-30T05:58:43;32.74;44.29
64743;HTU21D;51177;45.018;38.982;2022-09-30T06:01:10;32.74;44.45
64743;HTU21D;51177;45.018;38.982;2022-09-30T06:03:40;32.79;43.71
64743;HTU21D;51177;45.018;38.982;2022-09-30T06:06:07;32.93;43.20
64743;HTU21D;51177;45.018;38.982;2022-09-30T06:08:33;33.13;43.20
64743;HTU21D;51177;45.018;38.982;2022-09-30T06:11:00;33.30;42.62
64743;HTU21D;51177;45.018;38.982;2022-09-30T06:13:26;33.44;42.13
64743;HTU21D;51177;45.018;38.982;2022-09-30T06:15:58;33.49;42.22
64743;HTU21D;51177;45.018;38.982;2022-09-30T06:18:25;33.63;41.74
64743;HTU21D;51177;45.018;38.982;2022-09-30T06:20:52;33.64;41.45
64743;HTU21D;51177;45.018;38.982;2022-09-30T06:23:21;33.79;41.20
64743;HTU21D;51177;45.018;38.982;2022-09-30T06:25:50;33.96;40.71
64743;HTU21D;51177;45.018;38.982;2022-09-30T06:28:19;34.01;40.28
64743;HTU21D;51177;45.018;38.982;2022-09-30T06:30:45;34.05;40.28
64743;HTU21D;51177;45.018;38.982;2022-09-30T06:33:14;34.14;40.36
64743;HTU21D;51177;45.018;38.982;2022-09-30T06:35:43;34.12;39.12
64743;HTU21D;51177;45.018;38.982;2022-09-30T06:38:12;34.18;39.16
64743;HTU21D;51177;45.018;38.982;2022-09-30T06:40:40;34.31;39.23
64743;HTU21D;51177;45.018;38.982;2022-09-30T06:43:07;34.51;38.91
64743;HTU21D;51177;45.018;38.982;2022-09-30T06:45:37;34.60;38.50
64743;HTU21D;51177;45.018;38.982;2022-09-30T06:48:04;34.48;38.43
64743;HTU21D;51177;45.018;38.982;2022-09-30T06:50:32;34.33;38.63
64743;HTU21D;51177;45.018;38.982;2022-09-30T06:52:59;34.36;38.63
64743;HTU21D;51177;45.018;38.982;2022-09-30T06:55:26;34.48;38.65
64743;HTU21D;51177;45.018;38.982;2022-09-30T06:57:52;34.70;38.43
64743;HTU21D;51177;45.018;38.982;2022-09-30T07:00:21;34.85;37.75
64743;HTU21D;51177;45.018;38.982;2022-09-30T07:02:48;34.95;37.93
64743;HTU21D;51177;45.018;38.982;2022-09-30T07:05:14;34.95;37.56
64743;HTU21D;51177;45.018;38.982;2022-09-30T07:07:41;34.98;37.58
64743;HTU21D;51177;45.018;38.982;2022-09-30T07:10:09;35.10;37.00
64743;HTU21D;51177;45.018;38.982;2022-09-30T07:12:35;34.99;36.59
64743;HTU21D;51177;45.018;38.982;2022-09-30T07:15:01;34.57;36.74
64743;HTU21D;51177;45.018;38.982;2022-09-30T07:17:27;34.56;37.19
64743;HTU21D;51177;45.018;38.982;2022-09-30T07:19:56;34.54;36.65
64743;HTU21D;51177;45.018;38.982;2022-09-30T07:22:24;34.60;36.63
64743;HTU21D;51177;45.018;38.982;2022-09-30T07:24:58;34.69;36.68
64743;HTU21D;51177;45.018;38.982;2022-09-30T07:27:25;34.94;36.53
64743;HTU21D;51177;45.018;38.982;2022-09-30T07:32:43;35.10;36.25
64743;HTU21D;51177;45.018;38.982;2022-09-30T07:35:09;35.19;35.92
64743;HTU21D;51177;45.018;38.982;2022-09-30T07:37:35;35.27;35.79
64743;HTU21D;51177;45.018;38.982;2022-09-30T07:40:03;35.38;35.05
64743;HTU21D;51177;45.018;38.982;2022-09-30T07:42:30;35.18;35.24
64743;HTU21D;51177;45.018;38.982;2022-09-30T07:44:58;35.15;35.05
64743;HTU21D;51177;45.018;38.982;2022-09-30T07:47:25;35.07;35.33
64743;HTU21D;51177;45.018;38.982;2022-09-30T07:49:51;35.15;34.75
64743;HTU21D;51177;45.018;38.982;2022-09-30T07:52:17;35.09;35.05
64743;HTU21D;51177;45.018;38.982;2022-09-30T07:54:43;35.07;35.11
64743;HTU21D;51177;45.018;38.982;2022-09-30T07:57:10;34.98;34.52
64743;HTU21D;51177;45.018;38.982;2022-09-30T07:59:38;34.75;34.76
64743;HTU21D;51177;45.018;38.982;2022-09-30T08:02:05;34.60;35.24
64743;HTU21D;51177;45.018;38.982;2022-09-30T08:04:31;34.90;35.11
64743;HTU21D;51177;45.018;38.982;2022-09-30T08:07:01;35.23;34.61
64743;HTU21D;51177;45.018;38.982;2022-09-30T08:09:27;35.25;34.49
64743;HTU21D;51177;45.018;38.982;2022-09-30T08:11:55;35.21;34.78
64743;HTU21D;51177;45.018;38.982;2022-09-30T08:14:24;35.27;34.70
64743;HTU21D;51177;45.018;38.982;2022-09-30T08:16:51;35.20;34.30
64743;HTU21D;51177;45.018;38.982;2022-09-30T08:19:21;34.99;33.64
64743;HTU21D;51177;45.018;38.982;2022-09-30T08:21:49;34.76;33.65
64743;HTU21D;51177;45.018;38.982;2022-09-30T08:24:19;34.52;34.11
64743;HTU21D;51177;45.018;38.982;2022-09-30T08:26:49;34.17;33.05
64743;HTU21D;51177;45.018;38.982;2022-09-30T08:29:15;33.60;33.92
64743;HTU21D;51177;45.018;38.982;2022-09-30T08:31:41;33.51;34.70
64743;HTU21D;51177;45.018;38.982;2022-09-30T08:34:07;33.71;34.72
64743;HTU21D;51177;45.018;38.982;2022-09-30T08:36:33;33.90;34.52
64743;HTU21D;51177;45.018;38.982;2022-09-30T08:38:59;33.94;33.68
64743;HTU21D;51177;45.018;38.982;2022-09-30T08:46:35;32.63;34.40
64743;HTU21D;51177;45.018;38.982;2022-09-30T08:49:10;32.69;34.58
64743;HTU21D;51177;45.018;38.982;2022-09-30T08:51:43;32.17;35.51
64743;HTU21D;51177;45.018;38.982;2022-09-30T08:54:12;31.80;36.65
64743;HTU21D;51177;45.018;38.982;2022-09-30T08:56:48;31.67;36.98
64743;HTU21D;51177;45.018;38.982;2022-09-30T09:01:58;31.14;37.66
64743;HTU21D;51177;45.018;38.982;2022-09-30T09:04:25;30.86;38.22
64743;HTU21D;51177;45.018;38.982;2022-09-30T09:06:56;30.66;38.62
64743;HTU21D;51177;45.018;38.982;2022-09-30T09:11:57;30.24;39.08
64743;HTU21D;51177;45.018;38.982;2022-09-30T09:19:46;29.62;40.32
64743;HTU21D;51177;45.018;38.982;2022-09-30T09:22:14;29.56;40.62
64743;HTU21D;51177;45.018;38.982;2022-09-30T09:24:42;29.46;40.15
64743;HTU21D;51177;45.018;38.982;2022-09-30T09:27:18;29.14;40.46
64743;HTU21D;51177;45.018;38.982;2022-09-30T09:30:04;28.82;41.16
64743;HTU21D;51177;45.018;38.982;2022-09-30T09:32:32;28.56;40.54
64743;HTU21D;51177;45.018;38.982;2022-09-30T09:34:59;28.37;41.23
64743;HTU21D;51177;45.018;38.982;2022-09-30T09:46:03;28.24;41.16
64743;HTU21D;51177;45.018;38.982;2022-09-30T09:48:34;28.23;41.28
64743;HTU21D;51177;45.018;38.982;2022-09-30T09:51:12;28.31;41.26
64743;HTU21D;51177;45.018;38.982;2022-09-30T09:56:17;28.56;40.86
64743;HTU21D;51177;45.018;38.982;2022-09-30T09:59:02;28.50;38.56
64743;HTU21D;51177;45.018;38.982;2022-09-30T10:01:30;28.34;40.20
64743;HTU21D;51177;45.018;38.982;2022-09-30T10:06:58;28.02;40.15
64743;HTU21D;51177;45.018;38.982;2022-09-30T10:09:28;27.99;39.87
64743;HTU21D;51177;45.018;38.982;2022-09-30T10:14:43;27.87;37.74
64743;HTU21D;51177;45.018;38.982;2022-09-30T10:17:21;27.80;39.15
64743;HTU21D;51177;45.018;38.982;2022-09-30T10:19:52;27.78;39.26
64743;HTU21D;51177;45.018;38.982;2022-09-30T10:22:29;27.84;39.79
64743;HTU21D;51177;45.018;38.982;2022-09-30T10:25:09;28.05;39.87
64743;HTU21D;51177;45.018;38.982;2022-09-30T10:27:47;28.18;39.73
64743;HTU21D;51177;45.018;38.982;2022-09-30T10:30:28;28.18;39.53
64743;HTU21D;51177;45.018;38.982;2022-09-30T10:32:55;28.24;39.82
64743;HTU21D;51177;45.018;38.982;2022-09-30T10:35:21;28.26;39.93
64743;HTU21D;51177;45.018;38.982;2022-09-30T10:37:50;28.32;39.60
64743;HTU21D;51177;45.018;38.982;2022-09-30T10:40:17;28.27;37.96
64743;HTU21D;51177;45.018;38.982;2022-09-30T10:42:46;28.26;39.27
64743;HTU21D;51177;45.018;38.982;2022-09-30T10:45:19;28.24;37.43
64743;HTU21D;51177;45.018;38.982;2022-09-30T10:47:47;28.13;36.41
64743;HTU21D;51177;45.018;38.982;2022-09-30T10:50:14;28.09;33.18
64743;HTU21D;51177;45.018;38.982;2022-09-30T10:52:46;28.03;37.27
64743;HTU21D;51177;45.018;38.982;2022-09-30T10:57:50;28.01;36.55
64743;HTU21D;51177;45.018;38.982;2022-09-30T11:00:21;27.96;37.62
64743;HTU21D;51177;45.018;38.982;2022-09-30T11:02:51;27.98;36.71
64743;HTU21D;51177;45.018;38.982;2022-09-30T11:05:43;28.09;37.21
64743;HTU21D;51177;45.018;38.982;2022-09-30T11:16:02;28.13;36.17
64743;HTU21D;51177;45.018;38.982;2022-09-30T11:19:18;28.08;37.66
64743;HTU21D;51177;45.018;38.982;2022-09-30T11:21:19;28.13;35.57
64743;HTU21D;51177;45.018;38.982;2022-09-30T11:23:48;28.17;37.74
64743;HTU21D;51177;45.018;38.982;2022-09-30T11:26:26;28.18;31.90
64743;HTU21D;51177;45.018;38.982;2022-09-30T11:33:57;28.30;36.60
64743;HTU21D;51177;45.018;38.982;2022-09-30T11:36:29;28.42;37.00
64743;HTU21D;51177;45.018;38.982;2022-09-30T11:39:15;28.46;36.86
64743;HTU21D;51177;45.018;38.982;2022-09-30T11:41:48;28.48;36.75
64743;HTU21D;51177;45.018;38.982;2022-09-30T11:46:58;28.45;36.73
64743;HTU21D;51177;45.018;38.982;2022-09-30T11:52:30;28.41;36.92
64743;HTU21D;51177;45.018;38.982;2022-09-30T11:55:10;28.41;37.29
64743;HTU21D;51177;45.018;38.982;2022-09-30T12:00:14;28.45;36.92
64743;HTU21D;51177;45.018;38.982;2022-09-30T12:02:58;28.47;37.31
64743;HTU21D;51177;45.018;38.982;2022-09-30T12:05:48;28.48;36.26
64743;HTU21D;51177;45.018;38.982;2022-09-30T12:08:49;28.54;36.95
64743;HTU21D;51177;45.018;38.982;2022-09-30T12:11:17;28.53;37.18
64743;HTU21D;51177;45.018;38.982;2022-09-30T12:13:47;28.60;37.40
64743;HTU21D;51177;45.018;38.982;2022-09-30T12:16:17;28.55;36.69
64743;HTU21D;51177;45.018;38.982;2022-09-30T12:18:52;28.41;34.50
64743;HTU21D;51177;45.018;38.982;2022-09-30T12:24:08;28.28;36.77
64743;HTU21D;51177;45.018;38.982;2022-09-30T12:26:36;28.25;37.18
64743;HTU21D;51177;45.018;38.982;2022-09-30T12:29:04;28.24;36.18
64743;HTU21D;51177;45.018;38.982;2022-09-30T12:34:43;28.35;36.97
64743;HTU21D;51177;45.018;38.982;2022-09-30T12:49:35;28.46;37.60
64743;HTU21D;51177;45.018;38.982;2022-09-30T12:52:26;28.45;37.64
64743;HTU21D;51177;45.018;38.982;2022-09-30T12:55:08;28.44;37.82
64743;HTU21D;51177;45.018;38.982;2022-09-30T12:57:40;28.45;37.97
64743;HTU21D;51177;45.018;38.982;2022-09-30T13:02:43;28.37;38.16
64743;HTU21D;51177;45.018;38.982;2022-09-30T13:05:52;28.31;38.27
64743;HTU21D;51177;45.018;38.982;2022-09-30T13:15:40;28.10;38.28
64743;HTU21D;51177;45.018;38.982;2022-09-30T13:20:49;28.01;38.61
64743;HTU21D;51177;45.018;38.982;2022-09-30T13:23:39;27.97;38.75
64743;HTU21D;51177;45.018;38.982;2022-09-30T13:28:53;28.01;38.74
64743;HTU21D;51177;45.018;38.982;2022-09-30T13:36:25;28.01;38.94
64743;HTU21D;51177;45.018;38.982;2022-09-30T13:49:57;27.83;39.36
64743;HTU21D;51177;45.018;38.982;2022-09-30T13:52:25;27.75;39.39
64743;HTU21D;51177;45.018;38.982;2022-09-30T13:54:52;27.68;39.10
64743;HTU21D;51177;45.018;38.982;2022-09-30T13:57:22;27.63;39.45
64743;HTU21D;51177;45.018;38.982;2022-09-30T14:00:24;27.54;39.56
64743;HTU21D;51177;45.018;38.982;2022-09-30T14:02:47;27.47;39.27
64743;HTU21D;51177;45.018;38.982;2022-09-30T14:10:42;27.34;39.52
64743;HTU21D;51177;45.018;38.982;2022-09-30T14:15:56;27.20;39.74
64743;HTU21D;51177;45.018;38.982;2022-09-30T14:21:05;27.08;39.97
64743;HTU21D;51177;45.018;38.982;2022-09-30T14:23:36;27.02;40.05
64743;HTU21D;51177;45.018;38.982;2022-09-30T14:31:00;26.98;40.15
64743;HTU21D;51177;45.018;38.982;2022-09-30T14:33:38;26.91;40.26
64743;HTU21D;51177;45.018;38.982;2022-09-30T14:36:06;26.87;40.37
64743;HTU21D;51177;45.018;38.982;2022-09-30T14:38:36;26.81;40.48
64743;HTU21D;51177;45.018;38.982;2022-09-30T14:41:03;26.76;40.55
64743;HTU21D;51177;45.018;38.982;2022-09-30T14:43:35;26.69;40.65
64743;HTU21D;51177;45.018;38.982;2022-09-30T14:46:07;26.65;40.72
64743;HTU21D;51177;45.018;38.982;2022-09-30T14:48:40;26.64;40.78
64743;HTU21D;51177;45.018;38.982;2022-09-30T14:51:11;26.62;40.81
64743;HTU21D;51177;45.018;38.982;2022-09-30T14:53:40;26.56;40.91
64743;HTU21D;51177;45.018;38.982;2022-09-30T14:56:19;26.51;41.01
64743;HTU21D;51177;45.018;38.982;2022-09-30T14:58:48;26.47;41.08
64743;HTU21D;51177;45.018;38.982;2022-09-30T15:01:22;26.47;41.11
64743;HTU21D;51177;45.018;38.982;2022-09-30T15:06:21;26.37;41.24
64743;HTU21D;51177;45.018;38.982;2022-09-30T15:08:52;26.34;41.33
64743;HTU21D;51177;45.018;38.982;2022-09-30T15:11:25;26.24;41.51
64743;HTU21D;51177;45.018;38.982;2022-09-30T15:13:56;26.18;41.65
64743;HTU21D;51177;45.018;38.982;2022-09-30T15:16:25;26.10;41.80
64743;HTU21D;51177;45.018;38.982;2022-09-30T15:18:51;26.03;41.93
64743;HTU21D;51177;45.018;38.982;2022-09-30T15:21:18;25.98;42.01
64743;HTU21D;51177;45.018;38.982;2022-09-30T15:23:46;25.92;42.14
64743;HTU21D;51177;45.018;38.982;2022-09-30T15:26:19;25.82;42.30
64743;HTU21D;51177;45.018;38.982;2022-09-30T15:28:48;25.76;42.43
64743;HTU21D;51177;45.018;38.982;2022-09-30T15:31:26;25.73;42.55
64743;HTU21D;51177;45.018;38.982;2022-09-30T15:34:06;25.68;42.60
64743;HTU21D;51177;45.018;38.982;2022-09-30T15:36:33;25.56;42.73
64743;HTU21D;51177;45.018;38.982;2022-09-30T15:38:59;25.47;42.85
64743;HTU21D;51177;45.018;38.982;2022-09-30T15:41:27;25.38;42.97
64743;HTU21D;51177;45.018;38.982;2022-09-30T15:43:53;25.31;43.03
64743;HTU21D;51177;45.018;38.982;2022-09-30T15:46:29;25.24;43.13
64743;HTU21D;51177;45.018;38.982;2022-09-30T15:48:58;25.18;43.21
64743;HTU21D;51177;45.018;38.982;2022-09-30T15:51:30;25.08;43.31
64743;HTU21D;51177;45.018;38.982;2022-09-30T15:54:01;25.02;43.41
64743;HTU21D;51177;45.018;38.982;2022-09-30T15:56:31;24.95;43.46
64743;HTU21D;51177;45.018;38.982;2022-09-30T16:04:03;24.78;43.69
64743;HTU21D;51177;45.018;38.982;2022-09-30T16:06:41;24.76;43.72
64743;HTU21D;51177;45.018;38.982;2022-09-30T16:12:08;24.69;43.83
64743;HTU21D;51177;45.018;38.982;2022-09-30T16:14:49;24.63;43.92
64743;HTU21D;51177;45.018;38.982;2022-09-30T16:17:16;24.60;43.98
64743;HTU21D;51177;45.018;38.982;2022-09-30T16:27:33;24.45;44.27
64743;HTU21D;51177;45.018;38.982;2022-09-30T16:29:59;24.43;44.32
64743;HTU21D;51177;45.018;38.982;2022-09-30T16:32:26;24.41;44.38
64743;HTU21D;51177;45.018;38.982;2022-09-30T16:34:55;24.39;44.44
64743;HTU21D;51177;45.018;38.982;2022-09-30T16:37:24;24.36;44.49
64743;HTU21D;51177;45.018;38.982;2022-09-30T16:39:52;24.35;44.58
64743;HTU21D;51177;45.018;38.982;2022-09-30T16:42:21;24.35;44.66
64743;HTU21D;51177;45.018;38.982;2022-09-30T16:44:47;24.33;44.77
64743;HTU21D;51177;45.018;38.982;2022-09-30T16:47:16;24.33;44.85
64743;HTU21D;51177;45.018;38.982;2022-09-30T16:49:46;24.29;44.92
64743;HTU21D;51177;45.018;38.982;2022-09-30T16:52:14;24.31;44.93
64743;HTU21D;51177;45.018;38.982;2022-09-30T16:54:43;24.28;45.03
64743;HTU21D;51177;45.018;38.982;2022-09-30T16:57:12;24.26;45.12
64743;HTU21D;51177;45.018;38.982;2022-09-30T16:59:39;24.24;45.19
64743;HTU21D;51177;45.018;38.982;2022-09-30T17:02:12;24.20;45.27
64743;HTU21D;51177;45.018;38.982;2022-09-30T17:04:39;24.14;45.38
64743;HTU21D;51177;45.018;38.982;2022-09-30T17:07:04;24.12;45.47
64743;HTU21D;51177;45.018;38.982;2022-09-30T17:09:30;24.11;45.51
64743;HTU21D;51177;45.018;38.982;2022-09-30T17:11:56;24.11;45.64
64743;HTU21D;51177;45.018;38.982;2022-09-30T17:14:23;24.12;45.78
64743;HTU21D;51177;45.018;38.982;2022-09-30T17:16:49;24.11;45.80
64743;HTU21D;51177;45.018;38.982;2022-09-30T17:19:16;24.08;45.90
64743;HTU21D;51177;45.018;38.982;2022-09-30T17:21:45;24.08;46.14
64743;HTU21D;51177;45.018;38.982;2022-09-30T17:24:14;24.05;46.22
64743;HTU21D;51177;45.018;38.982;2022-09-30T17:26:40;24.09;46.26
64743;HTU21D;51177;45.018;38.982;2022-09-30T17:29:06;24.05;46.34
64743;HTU21D;51177;45.018;38.982;2022-09-30T17:31:32;24.04;46.45
64743;HTU21D;51177;45.018;38.982;2022-09-30T17:36:52;23.97;46.79
64743;HTU21D;51177;45.018;38.982;2022-09-30T17:39:18;23.97;46.91
64743;HTU21D;51177;45.018;38.982;2022-09-30T17:41:45;23.95;46.97
64743;HTU21D;51177;45.018;38.982;2022-09-30T17:44:30;23.97;47.15
64743;HTU21D;51177;45.018;38.982;2022-09-30T17:46:56;24.00;47.17
64743;HTU21D;51177;45.018;38.982;2022-09-30T17:49:35;23.99;47.40
64743;HTU21D;51177;45.018;38.982;2022-09-30T17:52:01;24.02;47.30
64743;HTU21D;51177;45.018;38.982;2022-09-30T17:54:28;23.98;47.26
64743;HTU21D;51177;45.018;38.982;2022-09-30T17:56:55;23.92;47.25
64743;HTU21D;51177;45.018;38.982;2022-09-30T17:59:22;23.85;47.41
64743;HTU21D;51177;45.018;38.982;2022-09-30T18:01:52;23.84;47.41
64743;HTU21D;51177;45.018;38.982;2022-09-30T18:04:23;23.84;47.44
64743;HTU21D;51177;45.018;38.982;2022-09-30T18:06:56;23.85;47.35
64743;HTU21D;51177;45.018;38.982;2022-09-30T18:09:22;23.84;47.36
64743;HTU21D;51177;45.018;38.982;2022-09-30T18:11:48;23.83;47.37
64743;HTU21D;51177;45.018;38.982;2022-09-30T18:14:15;23.80;47.48
64743;HTU21D;51177;45.018;38.982;2022-09-30T18:16:42;23.77;47.50
64743;HTU21D;51177;45.018;38.982;2022-09-30T18:19:09;23.80;47.58
64743;HTU21D;51177;45.018;38.982;2022-09-30T18:21:35;23.80;47.65
64743;HTU21D;51177;45.018;38.982;2022-09-30T18:24:03;23.83;47.67
64743;HTU21D;51177;45.018;38.982;2022-09-30T18:26:29;23.83;47.66
64743;HTU21D;51177;45.018;38.982;2022-09-30T18:28:56;23.84;47.72
64743;HTU21D;51177;45.018;38.982;2022-09-30T18:31:25;23.85;47.66
64743;HTU21D;51177;45.018;38.982;2022-09-30T18:34:03;23.83;47.79
64743;HTU21D;51177;45.018;38.982;2022-09-30T18:36:32;23.83;47.83
64743;HTU21D;51177;45.018;38.982;2022-09-30T18:39:23;23.85;47.91
64743;HTU21D;51177;45.018;38.982;2022-09-30T18:41:49;23.88;47.92
64743;HTU21D;51177;45.018;38.982;2022-09-30T18:44:15;23.88;47.99
64743;HTU21D;51177;45.018;38.982;2022-09-30T18:46:41;23.87;48.04
64743;HTU21D;51177;45.018;38.982;2022-09-30T18:49:07;23.87;48.12
64743;HTU21D;51177;45.018;38.982;2022-09-30T18:51:34;23.87;48.18
64743;HTU21D;51177;45.018;38.982;2022-09-30T18:54:05;23.84;48.29
64743;HTU21D;51177;45.018;38.982;2022-09-30T18:56:32;23.84;48.34
64743;HTU21D;51177;45.018;38.982;2022-09-30T18:58:58;23.83;48.42